createdAt,value
2023-04-07T00:00:27.130Z,100668.84
2023-04-07T00:02:53.647Z,100669.44
2023-04-07T00:05:21.586Z,100671.03
2023-04-07T00:07:55.931Z,100674.28
2023-04-07T00:10:23.643Z,100683.19
2023-04-07T00:12:50.176Z,100677.69
2023-04-07T00:15:16.822Z,100673.88
2023-04-07T00:17:43.413Z,100665.19
2023-04-07T00:20:10.660Z,100675.59
2023-04-07T00:22:38.384Z,100671.28
2023-04-07T00:25:05.585Z,100669.31
2023-04-07T00:27:32.063Z,100666.50
2023-04-07T00:29:58.471Z,100668.06
2023-04-07T00:32:24.984Z,100673.31
2023-04-07T00:34:51.434Z,100676.84
2023-04-07T00:37:17.924Z,100662.50
2023-04-07T00:39:45.805Z,100672.31
2023-04-07T00:42:12.460Z,100671.53
2023-04-07T00:44:38.966Z,100675.66
2023-04-07T00:47:05.607Z,100669.19
2023-04-07T00:49:32.098Z,100662.81
2023-04-07T00:51:58.628Z,100654.63
2023-04-07T00:54:25.257Z,100656.34
2023-04-07T00:56:53.686Z,100649.53
2023-04-07T00:59:20.598Z,100659.88
2023-04-07T01:01:55.507Z,100662.16
2023-04-07T01:04:27.652Z,100660.53
2023-04-07T01:06:58.873Z,100655.75
2023-04-07T01:09:30.386Z,100663.66
2023-04-07T01:12:05.820Z,100661.13
2023-04-07T01:14:37.811Z,100651.22
2023-04-07T01:17:07.735Z,100657.31
2023-04-07T01:19:37.890Z,100649.88
2023-04-07T01:22:10.528Z,100664.84
2023-04-07T01:24:55.492Z,100657.84
2023-04-07T01:27:36.326Z,100659.44
2023-04-07T01:30:08.684Z,100649.53
2023-04-07T01:32:36.732Z,100663.66
2023-04-07T01:35:04.734Z,100660.28
2023-04-07T01:37:33.179Z,100662.22
2023-04-07T01:39:59.711Z,100661.84
2023-04-07T01:42:27.313Z,100666.09
2023-04-07T01:44:54.327Z,100668.00
2023-04-07T01:47:22.592Z,100675.66
2023-04-07T01:49:50.920Z,100675.66
2023-04-07T01:52:17.791Z,100669.19
2023-04-07T01:54:45.267Z,100671.03
2023-04-07T01:57:11.828Z,100671.47
2023-04-07T01:59:38.283Z,100671.81
2023-04-07T02:02:04.837Z,100673.31
2023-04-07T02:04:37.276Z,100668.00
2023-04-07T02:07:09.170Z,100665.38
2023-04-07T02:09:40.232Z,100665.25
2023-04-07T02:12:08.742Z,100667.81
2023-04-07T02:14:36.222Z,100669.63
2023-04-07T02:17:04.629Z,100671.09
2023-04-07T02:19:32.724Z,100669.91
2023-04-07T02:22:00.496Z,100669.00
2023-04-07T02:24:26.990Z,100666.91
2023-04-07T02:26:53.464Z,100663.81
2023-04-07T02:29:19.981Z,100667.09
2023-04-07T02:31:46.496Z,100671.19
2023-04-07T02:34:13.020Z,100665.56
2023-04-07T02:36:40.794Z,100667.16
2023-04-07T02:39:07.362Z,100666.88
2023-04-07T02:41:33.812Z,100664.25
2023-04-07T02:44:00.254Z,100672.97
2023-04-07T02:46:26.969Z,100670.50
2023-04-07T02:48:53.433Z,100671.69
2023-04-07T02:51:20.034Z,100673.22
2023-04-07T02:53:47.774Z,100664.91
2023-04-07T02:56:15.364Z,100664.78
2023-04-07T02:58:41.888Z,100670.75
2023-04-07T03:01:08.384Z,100674.00
2023-04-07T03:03:35.028Z,100668.25
2023-04-07T03:06:01.592Z,100673.19
2023-04-07T03:08:28.077Z,100660.63
2023-04-07T03:10:55.850Z,100662.94
2023-04-07T03:13:22.705Z,100670.16
2023-04-07T03:15:49.140Z,100670.59
2023-04-07T03:18:15.671Z,100674.00
2023-04-07T03:20:42.156Z,100676.44
2023-04-07T03:23:08.755Z,100669.34
2023-04-07T03:25:35.212Z,100668.84
2023-04-07T03:28:03.054Z,100673.38
2023-04-07T03:30:29.616Z,100676.97
2023-04-07T03:32:56.098Z,100671.91
2023-04-07T03:35:22.637Z,100676.16
2023-04-07T03:37:49.117Z,100674.19
2023-04-07T03:40:15.730Z,100670.66
2023-04-07T03:42:43.071Z,100674.94
2023-04-07T03:45:11.216Z,100666.66
2023-04-07T03:47:37.702Z,100674.81
2023-04-07T03:50:05.174Z,100666.31
2023-04-07T03:52:31.703Z,100670.34
2023-04-07T03:54:58.265Z,100674.44
2023-04-07T03:57:24.805Z,100671.50
2023-04-07T03:59:51.353Z,100679.44
2023-04-07T04:02:19.372Z,100684.44
2023-04-07T04:04:46.014Z,100679.19
2023-04-07T04:07:12.505Z,100681.34
2023-04-07T04:09:38.935Z,100678.81
2023-04-07T04:12:05.581Z,100679.13
2023-04-07T04:14:32.074Z,100684.22
2023-04-07T04:16:58.512Z,100685.94
2023-04-07T04:19:26.293Z,100685.56
2023-04-07T04:21:52.914Z,100680.03
2023-04-07T04:24:19.380Z,100678.91
2023-04-07T04:26:45.925Z,100678.34
2023-04-07T04:29:12.392Z,100677.97
2023-04-07T04:31:38.961Z,100675.97
2023-04-07T04:34:05.464Z,100686.06
2023-04-07T04:36:33.270Z,100681.25
2023-04-07T04:38:59.689Z,100680.91
2023-04-07T04:41:26.118Z,100679.91
2023-04-07T04:43:52.588Z,100680.75
2023-04-07T04:46:19.041Z,100678.91
2023-04-07T04:48:45.540Z,100679.19
2023-04-07T04:51:11.982Z,100681.94
2023-04-07T04:53:39.805Z,100680.09
2023-04-07T04:56:06.862Z,100681.53
2023-04-07T04:58:34.606Z,100675.66
2023-04-07T05:01:01.156Z,100680.63
2023-04-07T05:03:28.646Z,100688.56
2023-04-07T05:05:55.277Z,100682.34
2023-04-07T05:08:21.802Z,100683.88
2023-04-07T05:10:49.524Z,100677.81
2023-04-07T05:13:16.010Z,100686.78
2023-04-07T05:15:42.511Z,100690.00
2023-04-07T05:18:09.006Z,100682.25
2023-04-07T05:20:35.461Z,100678.47
2023-04-07T05:23:01.929Z,100674.66
2023-04-07T05:25:28.505Z,100680.19
2023-04-07T05:27:57.560Z,100685.16
2023-04-07T05:30:24.129Z,100689.91
2023-04-07T05:32:50.699Z,100690.22
2023-04-07T05:35:17.318Z,100684.78
2023-04-07T05:37:43.775Z,100682.72
2023-04-07T05:40:10.978Z,100685.63
2023-04-07T05:42:37.490Z,100687.91
2023-04-07T05:45:05.949Z,100693.00
2023-04-07T05:47:32.493Z,100695.31
2023-04-07T05:49:58.942Z,100696.16
2023-04-07T05:52:25.423Z,100695.25
2023-04-07T05:54:51.883Z,100707.53
2023-04-07T05:57:18.542Z,100700.63
2023-04-07T05:59:45.009Z,100704.59
2023-04-07T06:02:13.616Z,100704.53
2023-04-07T06:04:40.304Z,100706.91
2023-04-07T06:07:06.852Z,100702.28
2023-04-07T06:09:33.321Z,100709.22
2023-04-07T06:11:59.886Z,100713.88
2023-04-07T06:14:26.409Z,100715.88
2023-04-07T06:16:52.887Z,100724.69
2023-04-07T06:19:20.741Z,100717.66
2023-04-07T06:21:47.206Z,100732.69
2023-04-07T06:24:13.677Z,100725.38
2023-04-07T06:26:40.619Z,100723.63
2023-04-07T06:29:07.231Z,100726.78
2023-04-07T06:31:33.804Z,100728.50
2023-04-07T06:34:00.445Z,100735.91
2023-04-07T06:36:28.631Z,100734.44
2023-04-07T06:38:55.306Z,100742.59
2023-04-07T06:41:21.789Z,100745.88
2023-04-07T06:43:49.770Z,100743.78
2023-04-07T06:46:16.875Z,100749.88
2023-04-07T06:48:43.571Z,100757.94
2023-04-07T06:51:10.052Z,100762.19
2023-04-07T06:53:38.055Z,100764.69
2023-04-07T06:56:06.689Z,100762.91
2023-04-07T06:58:33.340Z,100763.38
2023-04-07T07:01:00.489Z,100765.69
2023-04-07T07:03:27.133Z,100760.16
2023-04-07T07:05:54.526Z,100771.41
2023-04-07T07:08:21.008Z,100772.69
2023-04-07T07:10:49.053Z,100778.53
2023-04-07T07:13:15.577Z,100775.53
2023-04-07T07:15:42.291Z,100771.91
2023-04-07T07:18:08.832Z,100783.84
2023-04-07T07:20:35.411Z,100777.28
2023-04-07T07:23:01.864Z,100782.84
2023-04-07T07:25:28.395Z,100782.06
2023-04-07T07:27:56.140Z,100781.97
2023-04-07T07:30:23.851Z,100791.28
2023-04-07T07:32:50.950Z,100790.09
2023-04-07T07:35:17.585Z,100795.38
2023-04-07T07:37:44.260Z,100790.50
2023-04-07T07:40:11.220Z,100791.41
2023-04-07T07:42:37.910Z,100795.03
2023-04-07T07:45:06.359Z,100789.06
2023-04-07T07:47:33.314Z,100789.91
2023-04-07T07:49:59.823Z,100785.19
2023-04-07T07:52:26.373Z,100783.25
2023-04-07T07:54:52.901Z,100788.38
2023-04-07T07:57:19.465Z,100788.63
2023-04-07T07:59:45.949Z,100786.91
2023-04-07T08:02:13.885Z,100787.75
2023-04-07T08:04:40.576Z,100797.66
2023-04-07T08:07:07.094Z,100795.47
2023-04-07T08:09:33.758Z,100795.47
2023-04-07T08:12:00.392Z,100795.47
2023-04-07T08:14:26.896Z,100784.72
2023-04-07T08:16:53.363Z,100795.97
2023-04-07T08:19:22.608Z,100803.88
2023-04-07T08:21:49.339Z,100808.91
2023-04-07T08:24:17.329Z,100804.47
2023-04-07T08:26:45.269Z,100801.91
2023-04-07T08:29:12.931Z,100801.91
2023-04-07T08:31:39.561Z,100803.03
2023-04-07T08:34:06.203Z,100803.03
2023-04-07T08:36:34.054Z,100800.00
2023-04-07T08:39:00.952Z,100807.81
2023-04-07T08:41:33.136Z,100802.44
2023-04-07T08:44:01.489Z,100802.78
2023-04-07T08:46:29.229Z,100802.09
2023-04-07T08:48:57.045Z,100790.94
2023-04-07T08:51:41.410Z,100791.34
2023-04-07T08:54:10.696Z,100791.94
2023-04-07T08:56:38.417Z,100783.94
2023-04-07T08:59:06.541Z,100784.59
2023-04-07T09:01:35.224Z,100787.84
2023-04-07T09:04:03.597Z,100784.22
2023-04-07T09:06:30.477Z,100785.25
2023-04-07T09:08:58.485Z,100782.53
2023-04-07T09:11:26.523Z,100783.84
2023-04-07T09:13:53.275Z,100776.81
2023-04-07T09:16:20.488Z,100781.00
2023-04-07T09:18:47.453Z,100787.28
2023-04-07T09:21:15.212Z,100787.19
2023-04-07T09:23:44.839Z,100797.09
2023-04-07T09:26:22.086Z,100787.53
2023-04-07T09:28:52.803Z,100785.00
2023-04-07T09:31:19.388Z,100790.16
2023-04-07T09:33:45.959Z,100797.00
2023-04-07T09:36:12.567Z,100793.34
2023-04-07T09:38:40.740Z,100791.41
2023-04-07T09:41:09.595Z,100784.66
2023-04-07T09:43:38.679Z,100787.53
2023-04-07T09:46:09.986Z,100788.69
2023-04-07T09:48:37.848Z,100795.97
2023-04-07T09:51:06.644Z,100791.31
2023-04-07T09:53:42.324Z,100795.69
2023-04-07T09:56:09.764Z,100795.03
2023-04-07T09:58:39.564Z,100802.09
2023-04-07T10:01:07.741Z,100800.41
2023-04-07T10:03:34.451Z,100798.50
2023-04-07T10:06:01.328Z,100799.44
2023-04-07T10:08:28.380Z,100783.03
2023-04-07T10:10:55.570Z,100790.16
2023-04-07T10:13:22.346Z,100788.78
2023-04-07T10:15:50.575Z,100797.59
2023-04-07T10:18:17.943Z,100794.47
2023-04-07T10:20:45.602Z,100795.78
2023-04-07T10:23:19.059Z,100795.41
2023-04-07T10:25:46.548Z,100786.31
2023-04-07T10:28:14.384Z,100783.63
2023-04-07T10:30:41.783Z,100783.31
2023-04-07T10:33:09.624Z,100785.88
2023-04-07T10:36:00.953Z,100781.97
2023-04-07T10:38:27.479Z,100779.66
2023-04-07T10:40:53.969Z,100783.91
2023-04-07T10:43:37.689Z,100789.28
2023-04-07T10:46:04.345Z,100784.47
2023-04-07T10:48:32.232Z,100782.13
2023-04-07T10:51:12.977Z,100782.53
2023-04-07T10:54:14.247Z,100778.72
2023-04-07T10:57:00.519Z,100780.03
2023-04-07T10:59:28.468Z,100783.94
2023-04-07T11:02:31.373Z,100783.53
2023-04-07T11:04:57.955Z,100777.34
2023-04-07T11:07:45.356Z,100789.78
2023-04-07T11:10:12.903Z,100794.00
2023-04-07T11:12:39.424Z,100790.22
2023-04-07T11:15:19.565Z,100785.78
2023-04-07T11:17:46.263Z,100780.03
2023-04-07T11:20:12.837Z,100784.78
2023-04-07T11:22:39.366Z,100787.22
2023-04-07T11:25:20.674Z,100777.13
2023-04-07T11:27:47.220Z,100785.78
2023-04-07T11:30:15.477Z,100783.81
2023-04-07T11:32:48.166Z,100776.94
2023-04-07T11:35:14.638Z,100781.72
2023-04-07T11:37:41.155Z,100783.66
2023-04-07T11:40:08.680Z,100786.28
2023-04-07T11:42:36.124Z,100786.59
2023-04-07T11:45:02.998Z,100782.06
2023-04-07T11:47:37.763Z,100787.44
2023-04-07T11:50:06.827Z,100783.19
2023-04-07T11:52:41.320Z,100782.84
2023-04-07T11:55:17.080Z,100777.59
2023-04-07T11:57:44.461Z,100786.06
2023-04-07T12:00:12.700Z,100775.38
2023-04-07T12:02:39.273Z,100779.72
2023-04-07T12:05:07.825Z,100777.38
2023-04-07T12:07:34.384Z,100776.78
2023-04-07T12:10:18.451Z,100769.72
2023-04-07T12:12:45.312Z,100769.25
2023-04-07T12:15:11.796Z,100766.34
2023-04-07T12:17:38.322Z,100772.19
2023-04-07T12:20:07.668Z,100767.31
2023-04-07T12:22:34.138Z,100761.88
2023-04-07T12:25:00.742Z,100756.47
2023-04-07T12:27:39.943Z,100769.91
2023-04-07T12:30:08.869Z,100759.38
2023-04-07T12:32:35.443Z,100774.50
2023-04-07T12:35:01.865Z,100763.75
2023-04-07T12:37:29.603Z,100759.22
2023-04-07T12:39:56.103Z,100754.84
2023-04-07T12:42:22.624Z,100757.66
2023-04-07T12:44:49.034Z,100760.22
2023-04-07T12:47:15.652Z,100742.06
2023-04-07T12:49:42.124Z,100737.09
2023-04-07T12:52:08.718Z,100735.97
2023-04-07T12:54:36.487Z,100734.53
2023-04-07T12:57:03.189Z,100730.47
2023-04-07T12:59:29.649Z,100732.28
2023-04-07T13:01:56.287Z,100720.25
2023-04-07T13:04:23.181Z,100717.41
2023-04-07T13:06:49.934Z,100720.50
2023-04-07T13:09:16.463Z,100728.91
2023-04-07T13:11:44.280Z,100720.31
2023-04-07T13:14:10.815Z,100725.19
2023-04-07T13:16:37.323Z,100719.22
2023-04-07T13:19:03.865Z,100733.69
2023-04-07T13:23:59.849Z,100721.94
2023-04-07T13:26:26.352Z,100718.78
2023-04-07T13:28:54.265Z,100723.38
2023-04-07T13:31:20.790Z,100727.69
2023-04-07T13:33:47.660Z,100732.28
2023-04-07T13:36:14.351Z,100727.53
2023-04-07T13:38:40.876Z,100733.50
2023-04-07T13:41:07.352Z,100724.72
2023-04-07T13:43:33.841Z,100715.78
2023-04-07T13:46:01.696Z,100720.19
2023-04-07T13:48:28.224Z,100715.78
2023-04-07T13:50:54.708Z,100721.78
2023-04-07T13:53:21.141Z,100719.03
2023-04-07T13:55:47.710Z,100725.41
2023-04-07T13:58:14.238Z,100723.31
2023-04-07T14:00:40.795Z,100716.94
2023-04-07T14:03:08.957Z,100717.66
2023-04-07T14:05:35.540Z,100717.13
2023-04-07T14:08:02.032Z,100712.84
2023-04-07T14:10:28.568Z,100715.63
2023-04-07T14:12:55.094Z,100710.50
2023-04-07T14:15:21.622Z,100716.41
2023-04-07T14:17:48.167Z,100706.00
2023-04-07T14:20:16.009Z,100707.16
2023-04-07T14:22:42.457Z,100704.94
2023-04-07T14:25:09.213Z,100700.38
2023-04-07T14:27:35.777Z,100697.59
2023-04-07T14:30:02.285Z,100695.19
2023-04-07T14:32:28.958Z,100700.03
2023-04-07T14:34:55.504Z,100693.28
2023-04-07T14:37:23.293Z,100695.53
2023-04-07T14:39:59.586Z,100696.47
2023-04-07T14:42:28.839Z,100686.88
2023-04-07T14:44:55.459Z,100688.41
2023-04-07T14:47:21.953Z,100687.56
2023-04-07T14:49:48.725Z,100693.94
2023-04-07T14:52:16.083Z,100683.19
2023-04-07T14:54:43.876Z,100686.47
2023-04-07T14:57:10.350Z,100685.88
2023-04-07T14:59:37.071Z,100684.19
2023-04-07T15:02:03.740Z,100679.50
2023-04-07T15:04:30.402Z,100684.03
2023-04-07T15:06:56.939Z,100693.09
2023-04-07T15:09:23.392Z,100684.63
2023-04-07T15:11:51.137Z,100685.69
2023-04-07T15:14:17.571Z,100682.78
2023-04-07T15:16:44.038Z,100681.59
2023-04-07T15:19:10.526Z,100682.72
2023-04-07T15:21:36.996Z,100690.09
2023-04-07T15:24:03.589Z,100689.75
2023-04-07T15:26:30.107Z,100686.47
2023-04-07T15:28:57.881Z,100687.31
2023-04-07T15:31:24.655Z,100688.31
2023-04-07T15:33:51.111Z,100694.81
2023-04-07T15:36:17.712Z,100686.88
2023-04-07T15:38:44.173Z,100694.09
2023-04-07T15:41:14.732Z,100693.38
2023-04-07T15:43:41.214Z,100693.75
2023-04-07T15:46:08.946Z,100691.19
2023-04-07T15:48:35.393Z,100689.50
2023-04-07T15:51:01.935Z,100692.19
2023-04-07T15:53:29.185Z,100687.91
2023-04-07T15:55:55.606Z,100689.03
2023-04-07T15:58:22.080Z,100681.09
2023-04-07T16:00:48.607Z,100691.13
2023-04-07T16:03:16.677Z,100685.75
2023-04-07T16:05:43.454Z,100695.63
2023-04-07T16:08:11.549Z,100694.78
2023-04-07T16:10:39.771Z,100694.09
2023-04-07T16:13:06.196Z,100699.47
2023-04-07T16:15:40.237Z,100701.28
2023-04-07T16:18:10.082Z,100695.19
2023-04-07T16:20:38.216Z,100703.38
2023-04-07T16:23:04.666Z,100700.69
2023-04-07T16:25:31.269Z,100704.50
2023-04-07T16:27:57.785Z,100706.19
2023-04-07T16:30:24.284Z,100702.66
2023-04-07T16:32:50.782Z,100704.75
2023-04-07T16:35:17.330Z,100700.22
2023-04-07T16:37:45.076Z,100696.69
2023-04-07T16:40:12.144Z,100696.81
2023-04-07T16:42:38.640Z,100704.03
2023-04-07T16:45:05.958Z,100699.38
2023-04-07T16:47:32.581Z,100690.72
2023-04-07T16:49:59.416Z,100701.22
2023-04-07T16:52:26.016Z,100709.53
2023-04-07T16:54:53.789Z,100715.84
2023-04-07T16:57:20.253Z,100709.53
2023-04-07T16:59:46.760Z,100716.75
2023-04-07T17:02:14.350Z,100710.50
2023-04-07T17:04:41.127Z,100710.50
2023-04-07T17:07:08.101Z,100721.97
2023-04-07T17:09:35.006Z,100718.69
2023-04-07T17:12:03.591Z,100717.69
2023-04-07T17:14:30.284Z,100720.53
2023-04-07T17:16:56.881Z,100719.78
2023-04-07T17:19:23.688Z,100719.53
2023-04-07T17:21:50.150Z,100721.50
2023-04-07T17:24:16.726Z,100725.16
2023-04-07T17:26:43.665Z,100727.75
2023-04-07T17:29:11.483Z,100724.47
2023-04-07T17:31:38.038Z,100730.66
2023-04-07T17:34:04.714Z,100728.00
2023-04-07T17:36:31.355Z,100731.78
2023-04-07T17:38:57.891Z,100736.16
2023-04-07T17:41:24.970Z,100740.81
2023-04-07T17:43:52.956Z,100739.81
2023-04-07T17:46:21.272Z,100743.63
2023-04-07T17:48:47.797Z,100735.69
2023-04-07T17:51:14.312Z,100743.91
2023-04-07T17:53:40.841Z,100745.66
2023-04-07T17:56:07.419Z,100751.19
2023-04-07T17:58:33.977Z,100748.34
2023-04-07T18:01:00.483Z,100751.19
2023-04-07T18:03:28.360Z,100754.00
2023-04-07T18:05:54.849Z,100756.69
2023-04-07T18:08:21.313Z,100764.00
2023-04-07T18:10:47.870Z,100761.47
2023-04-07T18:13:14.271Z,100768.63
2023-04-07T18:15:40.893Z,100777.66
2023-04-07T18:18:07.403Z,100779.66
2023-04-07T18:20:35.235Z,100778.78
2023-04-07T18:23:01.728Z,100777.06
2023-04-07T18:25:28.309Z,100782.69
2023-04-07T18:27:54.729Z,100790.75
2023-04-07T18:30:21.260Z,100777.47
2023-04-07T18:32:47.754Z,100792.72
2023-04-07T18:35:14.216Z,100801.84
2023-04-07T18:37:43.998Z,100799.03
2023-04-07T18:40:11.285Z,100805.53
2023-04-07T18:42:37.891Z,100803.81
2023-04-07T18:45:04.846Z,100805.03
2023-04-07T18:47:31.388Z,100813.09
2023-04-07T18:49:57.882Z,100819.44
2023-04-07T18:52:24.312Z,100820.44
2023-04-07T18:54:52.141Z,100824.91
2023-04-07T18:57:18.629Z,100825.06
2023-04-07T18:59:45.148Z,100827.00
2023-04-07T19:02:11.669Z,100824.44
2023-04-07T19:04:38.285Z,100830.66
2023-04-07T19:07:04.736Z,100831.50
2023-04-07T19:09:31.276Z,100838.84
2023-04-07T19:11:59.001Z,100837.25
2023-04-07T19:14:25.527Z,100840.06
2023-04-07T19:16:52.249Z,100841.88
2023-04-07T19:19:18.877Z,100845.69
2023-04-07T19:21:45.335Z,100854.69
2023-04-07T19:24:11.818Z,100846.53
2023-04-07T19:26:38.327Z,100843.09
2023-04-07T19:29:06.118Z,100853.97
2023-04-07T19:31:32.647Z,100849.56
2023-04-07T19:33:59.142Z,100853.34
2023-04-07T19:36:25.730Z,100850.69
2023-04-07T19:38:52.197Z,100854.44
2023-04-07T19:41:18.680Z,100859.94
2023-04-07T19:43:45.097Z,100869.94
2023-04-07T19:46:12.956Z,100869.78
2023-04-07T19:48:39.484Z,100870.16
2023-04-07T19:51:07.292Z,100872.84
2023-04-07T19:53:34.010Z,100871.16
2023-04-07T19:56:01.625Z,100872.22
2023-04-07T19:58:28.110Z,100881.38
2023-04-07T20:00:54.686Z,100884.03
2023-04-07T20:03:22.740Z,100885.88
2023-04-07T20:05:49.336Z,100884.31
2023-04-07T20:08:15.825Z,100879.19
2023-04-07T20:10:42.293Z,100888.19
2023-04-07T20:13:08.716Z,100883.66
2023-04-07T20:15:35.278Z,100890.16
2023-04-07T20:18:01.901Z,100901.97
2023-04-07T20:20:29.685Z,100894.03
2023-04-07T20:22:56.270Z,100908.53
2023-04-07T20:25:22.804Z,100907.56
2023-04-07T20:27:49.364Z,100904.25
2023-04-07T20:30:15.975Z,100903.53
2023-04-07T20:32:42.498Z,100907.91
2023-04-07T20:35:09.734Z,100915.22
2023-04-07T20:37:37.482Z,100914.13
2023-04-07T20:40:04.257Z,100915.22
2023-04-07T20:42:30.715Z,100921.41
2023-04-07T20:44:57.150Z,100921.56
2023-04-07T20:47:23.664Z,100923.38
2023-04-07T20:49:50.269Z,100915.41
2023-04-07T20:52:16.701Z,100920.91
2023-04-07T20:54:44.597Z,100918.22
2023-04-07T20:57:11.059Z,100921.25
2023-04-07T20:59:37.537Z,100919.53
2023-04-07T21:02:04.271Z,100925.50
2023-04-07T21:04:31.169Z,100915.91
2023-04-07T21:06:57.734Z,100919.44
2023-04-07T21:09:24.211Z,100917.81
2023-04-07T21:11:51.933Z,100916.84
2023-04-07T21:14:18.330Z,100916.84
2023-04-07T21:16:44.804Z,100920.63
2023-04-07T21:19:11.229Z,100915.38
2023-04-07T21:21:37.791Z,100925.88
2023-04-07T21:24:04.487Z,100931.38
2023-04-07T21:26:31.034Z,100926.22
2023-04-07T21:28:58.764Z,100929.00
2023-04-07T21:31:25.333Z,100931.81
2023-04-07T21:33:51.783Z,100930.22
2023-04-07T21:36:18.222Z,100931.06
2023-04-07T21:38:44.703Z,100930.22
2023-04-07T21:41:11.178Z,100930.22
2023-04-07T21:43:37.623Z,100925.72
2023-04-07T21:46:05.421Z,100925.94
2023-04-07T21:48:31.917Z,100921.69
2023-04-07T21:50:58.367Z,100921.69
2023-04-07T21:53:24.935Z,100922.41
2023-04-07T21:55:52.177Z,100924.38
2023-04-07T21:58:18.821Z,100922.41
2023-04-07T22:00:47.137Z,100928.00
2023-04-07T22:03:14.982Z,100915.56
2023-04-07T22:05:41.544Z,100920.94
2023-04-07T22:08:07.964Z,100916.53
2023-04-07T22:10:34.384Z,100915.94
2023-04-07T22:13:00.849Z,100921.16
2023-04-07T22:15:27.290Z,100917.63
2023-04-07T22:17:53.824Z,100914.22
2023-04-07T22:20:21.692Z,100918.69
2023-04-07T22:22:48.178Z,100917.84
2023-04-07T22:25:14.724Z,100917.13
2023-04-07T22:27:41.189Z,100915.41
2023-04-07T22:30:08.664Z,100918.19
2023-04-07T22:32:35.279Z,100909.31
2023-04-07T22:35:01.842Z,100910.16
2023-04-07T22:37:29.576Z,100916.59
2023-04-07T22:39:56.026Z,100916.38
2023-04-07T22:42:22.465Z,100910.25
2023-04-07T22:44:48.906Z,100904.06
2023-04-07T22:47:15.411Z,100915.13
2023-04-07T22:49:41.836Z,100918.56
2023-04-07T22:52:08.431Z,100915.13
2023-04-07T22:54:36.228Z,100918.66
2023-04-07T22:57:02.779Z,100923.66
2023-04-07T22:59:29.297Z,100920.13
2023-04-07T23:01:57.666Z,100921.72
2023-04-07T23:04:24.504Z,100926.25
2023-04-07T23:06:51.026Z,100922.50
2023-04-07T23:09:17.503Z,100923.44
2023-04-07T23:11:46.717Z,100921.72
2023-04-07T23:14:13.216Z,100921.34
2023-04-07T23:16:39.690Z,100926.69
2023-04-07T23:19:06.813Z,100930.34
2023-04-07T23:21:33.284Z,100924.13
2023-04-07T23:23:59.725Z,100936.91
2023-04-07T23:26:26.225Z,100931.66
2023-04-07T23:28:54.069Z,100926.28
2023-04-07T23:31:20.590Z,100935.31
2023-04-07T23:33:47.219Z,100926.41
2023-04-07T23:36:13.731Z,100938.97
2023-04-07T23:38:40.150Z,100931.88
2023-04-07T23:41:06.721Z,100938.09
2023-04-07T23:43:33.185Z,100929.31
2023-04-07T23:46:01.375Z,100938.34
2023-04-07T23:48:27.856Z,100936.38
2023-04-07T23:50:54.373Z,100937.56
2023-04-07T23:53:20.833Z,100929.53
2023-04-07T23:55:47.268Z,100937.69
2023-04-07T23:58:13.721Z,100940.25
